createdAt,value
2023-05-08T00:02:15.461Z,5.05
2023-05-08T00:04:43.376Z,4.72
2023-05-08T00:07:11.229Z,6.25
2023-05-08T00:09:40.653Z,6.75
2023-05-08T00:12:08.876Z,6.78
2023-05-08T00:14:36.765Z,7.35
2023-05-08T00:17:04.669Z,7.35
2023-05-08T00:19:32.728Z,7.10
2023-05-08T00:22:00.452Z,8.07
2023-05-08T00:24:28.208Z,8.45
2023-05-08T00:26:57.368Z,9.48
2023-05-08T00:29:25.213Z,8.93
2023-05-08T00:31:53.097Z,9.75
2023-05-08T00:34:20.874Z,8.65
2023-05-08T00:36:48.823Z,8.52
2023-05-08T00:39:16.677Z,8.95
2023-05-08T00:41:44.451Z,8.15
2023-05-08T00:44:13.588Z,8.75
2023-05-08T00:46:45.733Z,9.18
2023-05-08T00:49:14.625Z,9.35
2023-05-08T00:51:43.620Z,9.90
2023-05-08T00:54:12.168Z,9.38
2023-05-08T00:56:40.486Z,9.35
2023-05-08T00:59:12.730Z,10.52
2023-05-08T01:01:45.289Z,11.07
2023-05-08T01:04:13.320Z,10.60
2023-05-08T01:06:43.991Z,10.10
2023-05-08T01:09:12.252Z,9.07
2023-05-08T01:11:48.287Z,8.70
2023-05-08T01:14:21.310Z,8.27
2023-05-08T01:16:59.605Z,9.73
2023-05-08T01:19:55.991Z,8.25
2023-05-08T01:22:45.133Z,8.68
2023-05-08T01:25:36.158Z,7.85
2023-05-08T01:28:22.975Z,9.35
2023-05-08T01:31:18.543Z,11.20
2023-05-08T01:33:55.919Z,10.90
2023-05-08T01:36:30.266Z,16.05
2023-05-08T01:39:18.365Z,16.58
2023-05-08T01:41:55.218Z,22.48
2023-05-08T01:44:30.075Z,21.08
2023-05-08T01:46:59.559Z,22.85
2023-05-08T01:49:35.386Z,24.35
2023-05-08T01:52:08.623Z,25.48
2023-05-08T01:54:44.053Z,27.23
2023-05-08T01:57:13.496Z,27.38
2023-05-08T01:59:44.034Z,27.70
2023-05-08T02:02:13.236Z,29.50
2023-05-08T02:04:44.588Z,33.13
2023-05-08T02:07:12.830Z,32.97
2023-05-08T02:09:45.883Z,35.70
2023-05-08T02:12:15.434Z,36.13
2023-05-08T02:14:44.805Z,38.55
2023-05-08T02:17:15.483Z,36.00
2023-05-08T02:19:45.840Z,37.50
2023-05-08T02:22:16.417Z,29.00
2023-05-08T02:24:46.316Z,26.05
2023-05-08T02:27:16.957Z,25.08
2023-05-08T02:29:44.758Z,25.40
2023-05-08T02:32:13.209Z,25.77
2023-05-08T02:34:51.118Z,25.02
2023-05-08T02:37:29.866Z,26.95
2023-05-08T02:39:59.650Z,27.15
2023-05-08T02:42:27.745Z,26.65
2023-05-08T02:44:55.586Z,26.27
2023-05-08T02:47:27.031Z,33.10
2023-05-08T02:50:01.328Z,32.13
2023-05-08T02:52:33.650Z,33.97
2023-05-08T02:55:06.213Z,36.03
2023-05-08T02:57:42.954Z,39.00
2023-05-08T03:00:18.421Z,37.67
2023-05-08T03:02:57.100Z,45.65
2023-05-08T03:05:30.602Z,48.00
2023-05-08T03:08:06.070Z,43.67
2023-05-08T03:10:37.712Z,42.67
2023-05-08T03:13:09.202Z,40.03
2023-05-08T03:15:43.022Z,40.90
2023-05-08T03:20:44.705Z,31.95
2023-05-08T03:23:16.486Z,33.47
2023-05-08T03:25:44.887Z,37.55
2023-05-08T03:28:14.271Z,35.65
2023-05-08T03:30:43.330Z,39.60
2023-05-08T03:33:13.610Z,44.42
2023-05-08T03:35:41.777Z,54.17
2023-05-08T03:38:09.703Z,56.17
2023-05-08T03:40:39.947Z,58.67
2023-05-08T03:43:08.806Z,66.93
2023-05-08T03:45:37.832Z,64.20
2023-05-08T03:48:06.419Z,70.50
2023-05-08T03:50:36.948Z,67.65
2023-05-08T03:53:05.172Z,67.70
2023-05-08T03:55:33.759Z,67.43
2023-05-08T03:58:08.161Z,66.53
2023-05-08T04:00:47.916Z,65.95
2023-05-08T04:03:23.953Z,66.15
2023-05-08T04:06:00.855Z,64.25
2023-05-08T04:08:30.880Z,67.97
2023-05-08T04:11:07.581Z,75.45
2023-05-08T04:13:44.309Z,73.78
2023-05-08T04:16:18.660Z,76.13
2023-05-08T04:18:49.023Z,69.82
2023-05-08T04:21:21.414Z,68.57
2023-05-08T04:23:51.911Z,68.22
2023-05-08T04:26:20.693Z,65.70
2023-05-08T04:28:50.491Z,58.63
2023-05-08T04:31:19.088Z,61.53
2023-05-08T04:33:47.433Z,58.03
2023-05-08T04:36:15.649Z,61.80
2023-05-08T04:38:43.656Z,61.97
2023-05-08T04:41:11.504Z,63.25
2023-05-08T04:43:39.757Z,59.78
2023-05-08T04:46:09.614Z,54.50
2023-05-08T04:48:37.591Z,52.85
2023-05-08T04:51:05.884Z,55.28
2023-05-08T04:53:33.841Z,54.38
2023-05-08T04:56:01.743Z,54.83
2023-05-08T04:58:29.722Z,56.70
2023-05-08T05:00:57.504Z,56.83
2023-05-08T05:03:26.668Z,54.13
2023-05-08T05:05:59.750Z,59.47
2023-05-08T05:08:27.651Z,57.60
2023-05-08T05:10:55.598Z,57.65
2023-05-08T05:13:23.456Z,60.22
2023-05-08T05:15:54.388Z,59.42
2023-05-08T05:18:22.466Z,58.70
2023-05-08T05:20:51.653Z,58.47
2023-05-08T05:23:19.431Z,57.90
2023-05-08T05:25:47.271Z,63.60
2023-05-08T05:28:15.110Z,65.88
2023-05-08T05:30:43.207Z,64.35
2023-05-08T05:33:11.003Z,63.38
2023-05-08T05:35:38.897Z,65.55
2023-05-08T05:38:08.051Z,65.75
2023-05-08T05:40:35.788Z,63.08
2023-05-08T05:43:03.927Z,59.17
2023-05-08T05:45:33.598Z,57.80
2023-05-08T05:48:01.677Z,56.63
2023-05-08T05:50:29.507Z,58.78
2023-05-08T05:52:57.218Z,61.42
2023-05-08T05:55:26.729Z,60.70
2023-05-08T05:57:57.509Z,58.45
2023-05-08T06:00:25.327Z,55.40
2023-05-08T06:02:53.415Z,58.08
2023-05-08T06:05:21.376Z,54.30
2023-05-08T06:07:49.130Z,56.25
2023-05-08T06:10:16.915Z,57.70
2023-05-08T06:12:46.046Z,59.90
2023-05-08T06:15:15.045Z,55.45
2023-05-08T06:17:43.106Z,53.28
2023-05-08T06:20:11.115Z,57.45
2023-05-08T06:22:40.091Z,61.78
2023-05-08T06:25:09.682Z,62.22
2023-05-08T06:27:37.589Z,65.53
2023-05-08T06:30:10.699Z,62.53
2023-05-08T06:32:41.632Z,62.35
2023-05-08T06:35:10.626Z,62.55
2023-05-08T06:37:38.669Z,61.17
2023-05-08T06:40:12.183Z,61.55
2023-05-08T06:42:41.080Z,60.45
2023-05-08T06:45:11.469Z,60.25
2023-05-08T06:47:39.468Z,58.22
2023-05-08T06:50:08.381Z,61.53
2023-05-08T06:52:36.103Z,63.92
2023-05-08T06:55:03.944Z,62.97
2023-05-08T06:57:31.699Z,61.67
2023-05-08T06:59:59.415Z,59.40
2023-05-08T07:02:28.681Z,61.42
2023-05-08T07:04:56.474Z,60.28
2023-05-08T07:07:24.404Z,62.63
2023-05-08T07:09:52.164Z,63.72
2023-05-08T07:12:20.000Z,65.45
2023-05-08T07:14:47.763Z,65.90
2023-05-08T07:17:15.704Z,62.15
2023-05-08T07:19:44.882Z,64.45
2023-05-08T07:22:12.781Z,62.67
2023-05-08T07:24:40.711Z,64.15
2023-05-08T07:27:08.559Z,62.20
2023-05-08T07:29:36.965Z,63.10
2023-05-08T07:32:08.487Z,60.80
2023-05-08T07:34:36.542Z,57.20
2023-05-08T07:37:05.902Z,57.22
2023-05-08T07:39:33.790Z,56.88
2023-05-08T07:42:01.613Z,48.72
2023-05-08T07:44:31.673Z,55.63
2023-05-08T07:47:03.755Z,54.72
2023-05-08T07:49:31.642Z,56.20
2023-05-08T07:51:59.423Z,58.25
2023-05-08T07:54:28.660Z,55.25
2023-05-08T07:56:56.470Z,52.58
2023-05-08T07:59:24.359Z,51.40
2023-05-08T08:01:52.517Z,53.60
2023-05-08T08:04:20.426Z,45.50
2023-05-08T08:06:48.283Z,45.45
2023-05-08T08:09:16.185Z,41.05
2023-05-08T08:11:45.396Z,41.35
2023-05-08T08:14:13.188Z,38.08
2023-05-08T08:16:40.939Z,39.83
2023-05-08T08:19:08.765Z,39.67
2023-05-08T08:21:36.782Z,42.25
2023-05-08T08:24:04.926Z,43.50
2023-05-08T08:26:32.731Z,47.40
2023-05-08T08:29:02.151Z,45.05
2023-05-08T08:31:29.990Z,50.10
2023-05-08T08:33:57.866Z,48.30
2023-05-08T08:36:27.963Z,50.20
2023-05-08T08:38:55.728Z,49.72
2023-05-08T08:41:23.669Z,49.42
2023-05-08T08:43:51.574Z,51.53
2023-05-08T08:46:24.956Z,50.58
2023-05-08T08:48:55.296Z,51.47
2023-05-08T08:51:28.457Z,52.85
2023-05-08T08:54:04.393Z,55.83
2023-05-08T08:56:33.784Z,52.30
2023-05-08T08:59:02.875Z,50.38
2023-05-08T09:01:36.144Z,49.08
2023-05-08T09:04:04.125Z,49.35
2023-05-08T09:06:35.770Z,46.33
2023-05-08T09:09:04.161Z,47.75
2023-05-08T09:11:32.023Z,47.83
2023-05-08T09:14:00.350Z,45.90
2023-05-08T09:16:29.301Z,42.42
2023-05-08T09:18:58.486Z,44.13
2023-05-08T09:21:26.909Z,42.60
2023-05-08T09:23:58.708Z,42.47
2023-05-08T09:26:32.463Z,43.75
2023-05-08T09:29:18.899Z,41.42
2023-05-08T09:31:49.007Z,41.78
2023-05-08T09:34:27.991Z,41.63
2023-05-08T09:36:56.275Z,40.97
2023-05-08T09:39:25.705Z,39.58
2023-05-08T09:42:00.212Z,38.75
2023-05-08T09:44:28.407Z,36.53
2023-05-08T09:47:12.012Z,36.47
2023-05-08T09:49:41.386Z,36.40
2023-05-08T09:52:09.549Z,35.03
2023-05-08T09:54:37.424Z,35.97
2023-05-08T09:57:13.480Z,35.70
2023-05-08T09:59:41.369Z,34.83
2023-05-08T10:02:16.071Z,32.97
2023-05-08T10:04:45.916Z,34.97
2023-05-08T10:07:13.731Z,35.33
2023-05-08T10:09:50.397Z,38.22
2023-05-08T10:12:19.344Z,31.88
2023-05-08T10:14:47.324Z,30.13
2023-05-08T10:17:20.466Z,32.63
2023-05-08T10:19:51.831Z,32.67
2023-05-08T10:22:21.603Z,32.30
2023-05-08T10:24:54.656Z,30.40
2023-05-08T10:27:31.951Z,31.52
2023-05-08T10:30:04.111Z,30.58
2023-05-08T10:32:40.675Z,31.90
2023-05-08T10:35:13.105Z,32.15
2023-05-08T10:37:42.894Z,32.72
2023-05-08T10:40:12.220Z,31.92
2023-05-08T10:42:41.051Z,31.30
2023-05-08T10:45:10.291Z,31.58
2023-05-08T10:47:49.682Z,30.70
2023-05-08T10:50:38.331Z,30.60
2023-05-08T10:53:09.154Z,31.08
2023-05-08T10:55:38.564Z,29.60
2023-05-08T10:58:10.705Z,32.17
2023-05-08T11:01:12.424Z,30.23
2023-05-08T11:03:42.559Z,29.55
2023-05-08T11:06:12.395Z,27.75
2023-05-08T11:08:51.740Z,28.35
2023-05-08T11:11:27.152Z,27.80
2023-05-08T11:14:00.460Z,25.98
2023-05-08T11:17:05.187Z,24.77
2023-05-08T11:19:33.008Z,24.30
2023-05-08T11:22:16.279Z,24.33
2023-05-08T11:24:50.328Z,23.52
2023-05-08T11:27:18.444Z,20.90
2023-05-08T11:29:46.262Z,21.77
2023-05-08T11:32:14.296Z,22.45
2023-05-08T11:34:49.595Z,24.95
2023-05-08T11:37:24.019Z,22.25
2023-05-08T11:39:52.118Z,22.73
2023-05-08T11:42:36.100Z,21.50
2023-05-08T11:45:06.594Z,22.05
2023-05-08T11:47:39.250Z,20.63
2023-05-08T11:50:09.088Z,20.90
2023-05-08T11:52:39.617Z,20.38
2023-05-08T11:55:09.693Z,21.17
2023-05-08T11:57:37.845Z,21.67
2023-05-08T12:00:06.881Z,18.98
2023-05-08T12:02:39.112Z,19.75
2023-05-08T12:05:08.298Z,20.88
2023-05-08T12:07:46.364Z,19.73
2023-05-08T12:10:15.320Z,20.38
2023-05-08T12:12:45.274Z,19.70
2023-05-08T12:15:15.294Z,19.23
2023-05-08T12:17:43.698Z,19.67
2023-05-08T12:20:14.263Z,20.92
2023-05-08T12:22:44.373Z,19.42
2023-05-08T12:25:13.096Z,19.98
2023-05-08T12:27:43.799Z,20.35
2023-05-08T12:30:14.071Z,20.13
2023-05-08T12:32:43.697Z,22.35
2023-05-08T12:35:12.813Z,21.88
2023-05-08T12:37:41.597Z,22.00
2023-05-08T12:40:26.849Z,21.00
2023-05-08T12:42:54.919Z,22.10
2023-05-08T12:45:24.203Z,21.40
2023-05-08T12:47:53.696Z,20.13
2023-05-08T12:50:22.824Z,19.27
2023-05-08T12:52:51.771Z,18.23
2023-05-08T12:55:29.130Z,19.05
2023-05-08T12:58:05.503Z,20.05
2023-05-08T13:00:38.253Z,19.15
2023-05-08T13:03:07.604Z,19.67
2023-05-08T13:05:36.994Z,20.35
2023-05-08T13:08:06.701Z,20.15
2023-05-08T13:10:49.960Z,21.42
2023-05-08T13:13:22.177Z,23.08
2023-05-08T13:15:51.661Z,21.38
2023-05-08T13:18:21.172Z,22.38
2023-05-08T13:20:49.173Z,22.42
2023-05-08T13:23:16.987Z,23.85
2023-05-08T13:25:44.868Z,23.45
2023-05-08T13:28:13.992Z,27.80
2023-05-08T13:30:41.767Z,24.13
2023-05-08T13:33:09.867Z,27.52
2023-05-08T13:35:37.815Z,30.42
2023-05-08T13:38:06.107Z,31.02
2023-05-08T13:40:34.120Z,31.13
2023-05-08T13:43:02.197Z,35.80
2023-05-08T13:45:32.883Z,35.63
2023-05-08T13:48:01.456Z,42.08
2023-05-08T13:50:29.416Z,44.53
2023-05-08T13:52:57.188Z,47.42
2023-05-08T13:55:25.069Z,49.17
2023-05-08T13:57:52.843Z,50.90
2023-05-08T14:00:21.217Z,51.45
2023-05-08T14:02:53.003Z,51.90
2023-05-08T14:05:21.332Z,49.72
2023-05-08T14:07:49.422Z,51.83
2023-05-08T14:10:18.058Z,48.95
2023-05-08T14:12:46.775Z,49.72
2023-05-08T14:15:14.966Z,49.25
2023-05-08T14:17:43.397Z,47.70
2023-05-08T14:20:13.525Z,46.50
2023-05-08T14:22:41.480Z,44.33
2023-05-08T14:25:10.536Z,43.53
2023-05-08T14:27:38.612Z,42.47
2023-05-08T14:30:08.279Z,43.67
2023-05-08T14:32:36.147Z,44.08
2023-05-08T14:35:03.979Z,41.90
2023-05-08T14:37:33.140Z,41.47
2023-05-08T14:40:00.959Z,39.30
2023-05-08T14:42:28.872Z,39.95
2023-05-08T14:44:57.026Z,34.65
2023-05-08T14:47:24.854Z,36.88
2023-05-08T14:49:53.717Z,39.97
2023-05-08T14:52:21.561Z,32.50
2023-05-08T14:54:53.418Z,29.85
2023-05-08T14:57:21.696Z,28.38
2023-05-08T14:59:55.100Z,28.55
2023-05-08T15:02:23.549Z,28.13
2023-05-08T15:04:51.414Z,25.55
2023-05-08T15:07:19.190Z,25.38
2023-05-08T15:09:47.939Z,25.40
2023-05-08T15:12:17.069Z,25.85
2023-05-08T15:14:44.878Z,25.83
2023-05-08T15:17:12.687Z,25.55
2023-05-08T15:19:40.495Z,25.23
2023-05-08T15:22:08.242Z,24.40
2023-05-08T15:24:36.122Z,23.67
2023-05-08T15:27:03.998Z,25.02
2023-05-08T15:29:33.166Z,22.77
2023-05-08T15:32:01.002Z,23.30
2023-05-08T15:34:32.695Z,22.45
2023-05-08T15:37:00.850Z,21.38
2023-05-08T15:39:28.625Z,19.80
2023-05-08T15:41:56.483Z,20.52
2023-05-08T15:44:26.534Z,18.63
2023-05-08T15:46:58.007Z,18.98
2023-05-08T15:49:27.089Z,20.48
2023-05-08T15:51:55.088Z,19.30
2023-05-08T15:54:22.842Z,16.98
2023-05-08T15:56:50.710Z,16.85
2023-05-08T15:59:18.564Z,17.08
2023-05-08T16:01:46.978Z,16.85
2023-05-08T16:04:16.182Z,16.48
2023-05-08T16:06:43.940Z,15.95
2023-05-08T16:09:11.705Z,16.23
2023-05-08T16:11:39.513Z,18.33
2023-05-08T16:14:07.324Z,18.40
2023-05-08T16:16:35.188Z,16.42
2023-05-08T16:19:03.158Z,15.77
2023-05-08T16:21:32.449Z,17.25
2023-05-08T16:24:00.556Z,19.00
2023-05-08T16:26:28.316Z,20.35
2023-05-08T16:28:56.238Z,20.23
2023-05-08T16:31:24.050Z,21.55
2023-05-08T16:33:51.780Z,21.20
2023-05-08T16:36:19.361Z,22.75
2023-05-08T16:38:48.624Z,24.92
2023-05-08T16:41:16.433Z,27.15
2023-05-08T16:43:44.239Z,26.83
2023-05-08T16:46:12.044Z,29.60
2023-05-08T16:48:39.840Z,30.45
2023-05-08T16:51:08.066Z,30.58
2023-05-08T16:53:35.997Z,30.08
2023-05-08T16:56:05.281Z,38.58
2023-05-08T16:58:33.242Z,31.63
2023-05-08T17:01:01.128Z,29.67
2023-05-08T17:03:29.048Z,30.35
2023-05-08T17:05:56.874Z,27.50
2023-05-08T17:08:24.630Z,28.25
2023-05-08T17:10:54.233Z,27.80
2023-05-08T17:13:23.416Z,24.85
2023-05-08T17:15:51.251Z,24.70
2023-05-08T17:18:19.018Z,25.83
2023-05-08T17:20:46.803Z,25.75
2023-05-08T17:23:14.663Z,24.45
2023-05-08T17:25:42.576Z,23.52
2023-05-08T17:28:10.419Z,25.17
2023-05-08T17:30:39.644Z,23.38
2023-05-08T17:33:07.476Z,25.95
2023-05-08T17:35:35.294Z,26.25
2023-05-08T17:38:03.136Z,25.67
2023-05-08T17:40:31.667Z,22.40
2023-05-08T17:43:00.284Z,23.60
2023-05-08T17:45:28.311Z,22.27
2023-05-08T17:47:57.573Z,22.80
2023-05-08T17:50:25.603Z,20.98
2023-05-08T17:52:53.385Z,20.20
2023-05-08T17:55:21.166Z,22.13
2023-05-08T17:57:52.580Z,20.42
2023-05-08T18:00:20.814Z,20.50
2023-05-08T18:02:48.707Z,19.02
2023-05-08T18:05:17.963Z,17.77
2023-05-08T18:07:45.764Z,18.45
2023-05-08T18:10:13.912Z,20.10
2023-05-08T18:12:41.893Z,18.48
2023-05-08T18:15:10.599Z,19.08
2023-05-08T18:17:38.387Z,16.65
2023-05-08T18:20:07.875Z,17.02
2023-05-08T18:22:37.201Z,17.70
2023-05-08T18:25:05.604Z,17.33
2023-05-08T18:27:36.031Z,16.42
2023-05-08T18:30:04.342Z,16.67
2023-05-08T18:32:32.156Z,17.25
2023-05-08T18:34:59.996Z,16.13
2023-05-08T18:37:28.317Z,16.88
2023-05-08T18:39:57.465Z,16.80
2023-05-08T18:42:25.439Z,17.35
2023-05-08T18:44:53.614Z,21.75
2023-05-08T18:47:21.465Z,28.17
2023-05-08T18:49:51.796Z,21.70
2023-05-08T18:52:19.623Z,19.10
2023-05-08T18:54:47.416Z,19.58
2023-05-08T18:57:16.644Z,18.77
2023-05-08T18:59:47.427Z,18.83
2023-05-08T19:02:15.243Z,21.13
2023-05-08T19:04:43.000Z,21.60
2023-05-08T19:07:10.773Z,22.27
2023-05-08T19:09:38.586Z,23.50
2023-05-08T19:12:06.436Z,21.90
2023-05-08T19:14:35.672Z,27.33
2023-05-08T19:17:03.487Z,25.75
2023-05-08T19:19:31.519Z,27.33
2023-05-08T19:21:59.296Z,24.73
2023-05-08T19:24:29.920Z,24.33
2023-05-08T19:26:58.423Z,24.63
2023-05-08T19:29:26.426Z,24.83
2023-05-08T19:31:56.458Z,25.92
2023-05-08T19:34:24.742Z,26.08
2023-05-08T19:36:52.518Z,28.20
2023-05-08T19:39:20.289Z,25.95
2023-05-08T19:41:48.081Z,25.50
2023-05-08T19:44:15.902Z,27.58
2023-05-08T19:46:43.761Z,27.00
2023-05-08T19:49:17.272Z,25.88
2023-05-08T19:51:45.148Z,25.73
2023-05-08T19:54:13.091Z,27.85
2023-05-08T19:56:40.815Z,26.60
2023-05-08T19:59:08.623Z,26.52
2023-05-08T20:01:36.644Z,26.17
2023-05-08T20:04:04.612Z,26.25
2023-05-08T20:06:33.933Z,26.70
2023-05-08T20:09:01.694Z,27.15
2023-05-08T20:11:29.477Z,25.08
2023-05-08T20:13:57.479Z,26.77
2023-05-08T20:16:26.557Z,27.08
2023-05-08T20:18:54.480Z,26.45
2023-05-08T20:21:22.435Z,26.40
2023-05-08T20:23:51.912Z,26.42
2023-05-08T20:26:19.621Z,27.90
2023-05-08T20:28:47.381Z,26.13
2023-05-08T20:31:15.255Z,26.58
2023-05-08T20:33:43.038Z,26.52
2023-05-08T20:36:10.864Z,26.48
2023-05-08T20:38:38.825Z,26.42
2023-05-08T20:41:08.011Z,25.95
2023-05-08T20:43:35.915Z,27.08
2023-05-08T20:46:05.036Z,26.33
2023-05-08T20:48:32.796Z,26.92
2023-05-08T20:51:00.603Z,27.23
2023-05-08T20:53:28.377Z,28.10
2023-05-08T20:56:01.679Z,27.02
2023-05-08T20:58:31.053Z,28.00
2023-05-08T21:00:59.000Z,26.85
2023-05-08T21:03:26.853Z,28.10
2023-05-08T21:05:55.750Z,27.75
2023-05-08T21:08:24.252Z,29.50
2023-05-08T21:10:52.785Z,27.27
2023-05-08T21:13:20.690Z,27.25
2023-05-08T21:15:51.291Z,27.45
2023-05-08T21:18:19.348Z,28.30
2023-05-08T21:20:50.217Z,29.75
2023-05-08T21:23:18.280Z,26.85
2023-05-08T21:25:47.018Z,27.70
2023-05-08T21:28:15.125Z,27.85
2023-05-08T21:30:42.976Z,28.17
2023-05-08T21:33:13.810Z,28.50
2023-05-08T21:35:42.124Z,27.23
2023-05-08T21:38:12.071Z,28.63
2023-05-08T21:40:39.914Z,27.73
2023-05-08T21:43:07.768Z,27.85
2023-05-08T21:45:35.625Z,28.67
2023-05-08T21:48:03.949Z,28.33
2023-05-08T21:50:33.149Z,26.83
2023-05-08T21:53:00.997Z,26.60
2023-05-08T21:55:30.885Z,27.25
2023-05-08T21:57:59.917Z,28.58
2023-05-08T22:00:27.676Z,28.52
2023-05-08T22:02:55.479Z,28.60
2023-05-08T22:05:24.451Z,28.23
2023-05-08T22:07:53.961Z,29.48
2023-05-08T22:10:22.436Z,29.85
2023-05-08T22:12:50.265Z,30.02
2023-05-08T22:15:29.528Z,29.77
2023-05-08T22:17:58.436Z,29.95
2023-05-08T22:20:26.589Z,30.80
2023-05-08T22:22:55.814Z,30.15
2023-05-08T22:25:25.202Z,30.55
2023-05-08T22:27:53.185Z,31.63
2023-05-08T22:30:21.185Z,30.90
2023-05-08T22:32:55.316Z,31.58
2023-05-08T22:35:24.828Z,31.10
2023-05-08T22:37:53.464Z,31.75
2023-05-08T22:40:23.263Z,31.38
2023-05-08T22:42:53.460Z,31.98
2023-05-08T22:45:21.585Z,30.80
2023-05-08T22:47:49.503Z,33.53
2023-05-08T22:50:17.510Z,34.05
2023-05-08T22:52:45.463Z,34.78
2023-05-08T22:55:15.509Z,32.33
2023-05-08T22:57:44.916Z,33.17
2023-05-08T23:00:16.204Z,34.35
2023-05-08T23:02:44.268Z,34.00
2023-05-08T23:05:12.180Z,34.53
2023-05-08T23:07:40.467Z,33.95
2023-05-08T23:10:09.040Z,34.10
2023-05-08T23:12:37.063Z,33.63
2023-05-08T23:15:07.047Z,33.55
2023-05-08T23:17:34.798Z,32.03
2023-05-08T23:20:02.835Z,35.00
2023-05-08T23:22:30.557Z,34.90
2023-05-08T23:24:58.418Z,33.10
2023-05-08T23:27:26.637Z,32.80
2023-05-08T23:29:54.361Z,32.95
2023-05-08T23:32:23.484Z,31.60
2023-05-08T23:34:51.209Z,33.35
2023-05-08T23:37:19.034Z,32.85
2023-05-08T23:39:46.738Z,31.27
2023-05-08T23:42:14.476Z,31.55
2023-05-08T23:44:42.224Z,29.63
2023-05-08T23:47:09.978Z,31.05
2023-05-08T23:49:39.126Z,28.45
2023-05-08T23:52:07.021Z,26.98
2023-05-08T23:54:34.815Z,28.95
2023-05-08T23:57:02.523Z,25.48
2023-05-08T23:59:30.430Z,24.63
